Time;durP1;ratioP1;P1;durP2;ratioP2;P2;SDS_P1;SDS_P2;PMS_P1;PMS_P2;Temp;Humidity;BMP_temperature;BMP_pressure;BME280_temperature;BME280_humidity;BME280_pressure;Samples;Min_cycle;Max_cycle;Signal;HPM_P1;HPM_P2
2022/02/15 00:02:10;;;;;;;4.35;2.67;;;18.50;63.30;;;;;;5018419;28;20261;-84
2022/02/15 00:04:36;;;;;;;3.58;2.50;;;18.40;63.30;;;;;;5018387;28;20161;-84
2022/02/15 00:07:02;;;;;;;4.45;2.75;;;18.50;63.20;;;;;;5018741;28;20167;-84
2022/02/15 00:09:28;;;;;;;3.58;2.63;;;18.40;63.30;;;;;;5018542;28;20163;-83
2022/02/15 00:11:53;;;;;;;3.60;2.60;;;18.40;63.30;;;;;;5002351;28;20175;-84
2022/02/15 00:14:19;;;;;;;4.95;2.88;;;18.40;63.20;;;;;;5002280;28;20605;-83
2022/02/15 00:16:45;;;;;;;4.72;3.00;;;18.40;63.30;;;;;;5018179;28;20532;-84
2022/02/15 00:19:10;;;;;;;5.72;3.10;;;18.40;63.40;;;;;;5002415;28;20195;-83
2022/02/15 00:21:36;;;;;;;5.05;2.90;;;18.40;63.40;;;;;;5018292;28;20570;-84
2022/02/15 00:24:01;;;;;;;6.15;2.90;;;18.30;63.60;;;;;;5001828;28;20310;-83
2022/02/15 00:26:27;;;;;;;4.53;2.75;;;18.40;63.40;;;;;;5017971;28;20218;-84
2022/02/15 00:28:53;;;;;;;3.50;2.80;;;18.30;63.40;;;;;;5018349;28;20167;-84
2022/02/15 00:31:19;;;;;;;4.10;2.67;;;18.30;63.30;;;;;;5001627;28;20269;-83
2022/02/15 00:33:45;;;;;;;3.45;2.50;;;18.30;63.60;;;;;;5017820;28;20200;-83
2022/02/15 00:36:10;;;;;;;4.00;2.78;;;18.40;63.60;;;;;;5018096;28;20511;-84
2022/02/15 00:38:36;;;;;;;3.97;2.90;;;18.30;63.50;;;;;;5017803;28;20245;-84
2022/02/15 00:41:03;;;;;;;5.72;2.70;;;18.30;63.60;;;;;;5001641;28;20217;-84
2022/02/15 00:43:28;;;;;;;4.45;2.58;;;18.30;63.50;;;;;;5018014;28;20201;-83
2022/02/15 00:45:54;;;;;;;3.35;2.60;;;18.30;63.80;;;;;;5017769;28;20159;-84
2022/02/15 00:48:20;;;;;;;5.18;2.72;;;18.20;63.40;;;;;;5035450;28;20159;-84
2022/02/15 00:50:46;;;;;;;3.42;2.58;;;18.20;63.80;;;;;;5017750;28;20163;-84
2022/02/15 00:53:11;;;;;;;3.90;2.53;;;18.30;63.60;;;;;;5017459;28;20182;-84
2022/02/15 00:55:37;;;;;;;5.63;3.08;;;18.20;63.70;;;;;;5001317;28;20684;-83
2022/02/15 00:58:03;;;;;;;7.47;3.05;;;18.20;63.80;;;;;;5017554;28;20617;-84
2022/02/15 01:00:28;;;;;;;3.78;2.70;;;18.30;63.80;;;;;;5001390;28;20172;-83
2022/02/15 01:02:54;;;;;;;4.47;2.63;;;18.30;63.80;;;;;;5017691;28;20317;-83
2022/02/15 01:05:20;;;;;;;3.30;2.50;;;18.20;63.70;;;;;;5017375;28;20151;-83
2022/02/15 01:07:46;;;;;;;4.15;2.60;;;18.20;63.70;;;;;;5017499;28;20155;-84
2022/02/15 01:10:12;;;;;;;4.28;2.53;;;18.20;63.60;;;;;;5017245;28;20151;-84
2022/02/15 01:12:38;;;;;;;3.92;2.50;;;18.20;63.40;;;;;;5017375;28;20175;-84
2022/02/15 01:15:05;;;;;;;4.57;2.50;;;18.20;63.60;;;;;;5000880;28;20198;-84
2022/02/15 01:17:30;;;;;;;4.10;2.53;;;18.20;63.60;;;;;;5000826;28;20240;-84
2022/02/15 01:19:56;;;;;;;4.07;2.72;;;18.20;63.80;;;;;;5017179;28;20543;-84
2022/02/15 01:22:26;;;;;;;3.75;2.55;;;18.20;63.70;;;;;;5001146;28;20562;-84
2022/02/15 01:24:52;;;;;;;4.47;3.03;;;18.20;63.70;;;;;;5000163;28;20178;-84
2022/02/15 01:27:19;;;;;;;3.50;2.65;;;18.20;64.00;;;;;;5016734;28;20610;-84
2022/02/15 01:29:44;;;;;;;3.80;2.55;;;18.10;64.00;;;;;;5017069;28;20174;-84
2022/02/15 01:32:10;;;;;;;3.42;2.65;;;18.10;64.10;;;;;;5017131;28;20159;-83
2022/02/15 01:34:36;;;;;;;4.75;3.25;;;18.10;63.70;;;;;;5000231;28;20187;-83
2022/02/15 01:37:02;;;;;;;3.53;2.85;;;18.10;63.80;;;;;;5016792;28;20170;-84
2022/02/15 01:39:27;;;;;;;5.00;2.90;;;18.10;63.80;;;;;;5016670;28;20170;-84
2022/02/15 01:41:54;;;;;;;3.97;2.83;;;18.10;63.90;;;;;;5016826;28;20158;-83
2022/02/15 01:44:20;;;;;;;3.55;2.75;;;18.10;63.90;;;;;;5016903;28;20641;-83
2022/02/15 01:46:45;;;;;;;3.53;2.63;;;18.10;63.90;;;;;;5000405;28;20171;-84
2022/02/15 01:49:11;;;;;;;3.80;2.60;;;18.10;63.40;;;;;;4999972;28;20178;-84
2022/02/15 01:51:37;;;;;;;5.32;2.58;;;18.10;63.60;;;;;;5016957;28;20617;-83
2022/02/15 01:54:02;;;;;;;4.40;2.80;;;18.10;63.80;;;;;;5000024;28;20237;-84
2022/02/15 01:56:28;;;;;;;5.25;2.65;;;18.10;63.50;;;;;;5015874;28;20163;-84
2022/02/15 01:58:55;;;;;;;3.53;2.50;;;18.10;64.70;;;;;;5000153;28;20185;-83
2022/02/15 02:01:21;;;;;;;4.53;2.72;;;18.10;63.80;;;;;;5000249;28;20633;-84
2022/02/15 02:03:47;;;;;;;3.92;2.70;;;18.10;64.20;;;;;;4999789;28;20244;-84
2022/02/15 02:06:13;;;;;;;5.07;2.72;;;18.10;64.20;;;;;;5016566;28;20166;-84
2022/02/15 02:08:40;;;;;;;3.75;2.42;;;18.00;64.10;;;;;;4982799;28;20192;-83
2022/02/15 02:11:07;;;;;;;3.35;2.60;;;18.00;64.00;;;;;;5015572;28;20198;-83
2022/02/15 02:13:34;;;;;;;4.60;2.70;;;18.00;63.70;;;;;;4983026;28;20289;-83
2022/02/15 02:15:59;;;;;;;4.82;2.70;;;18.10;64.10;;;;;;4982699;28;20174;-83
2022/02/15 02:18:25;;;;;;;4.00;2.80;;;18.00;64.00;;;;;;5016372;28;20155;-84
2022/02/15 02:20:51;;;;;;;3.75;2.60;;;18.00;63.80;;;;;;5016213;28;20155;-84
2022/02/15 02:23:18;;;;;;;2.88;2.53;;;18.00;63.80;;;;;;5015837;28;20198;-84
2022/02/15 02:25:43;;;;;;;4.05;2.70;;;18.00;63.80;;;;;;4999783;28;20185;-84
2022/02/15 02:28:09;;;;;;;3.92;2.67;;;18.00;64.00;;;;;;5015702;28;20303;-84
2022/02/15 02:30:36;;;;;;;5.07;2.83;;;18.00;64.10;;;;;;4999384;28;20518;-84
2022/02/15 02:33:02;;;;;;;3.10;2.40;;;18.00;63.80;;;;;;5033406;28;20241;-84
2022/02/15 02:35:28;;;;;;;4.50;2.92;;;18.00;63.60;;;;;;5033430;28;20162;-84
2022/02/15 02:37:54;;;;;;;4.25;2.67;;;18.00;63.60;;;;;;4999280;28;20186;-84
2022/02/15 02:40:20;;;;;;;3.80;2.75;;;18.00;63.90;;;;;;5000060;28;20194;-83
2022/02/15 02:42:46;;;;;;;3.78;2.40;;;18.00;64.00;;;;;;5016044;28;20237;-83
2022/02/15 02:45:15;;;;;;;4.38;2.60;;;18.00;63.90;;;;;;5015689;28;20179;-84
2022/02/15 02:47:43;;;;;;;3.80;2.85;;;18.00;63.90;;;;;;5015632;28;20174;-84
2022/02/15 02:50:09;;;;;;;3.92;3.00;;;18.00;63.80;;;;;;4999394;28;20167;-84
2022/02/15 02:52:34;;;;;;;3.20;2.58;;;18.00;64.30;;;;;;5015891;28;20552;-84
2022/02/15 02:55:00;;;;;;;4.07;2.60;;;18.00;64.10;;;;;;4999429;28;20197;-84
2022/02/15 02:57:26;;;;;;;6.95;2.83;;;18.00;63.80;;;;;;5015891;28;20177;-82
2022/02/15 02:59:52;;;;;;;3.03;2.70;;;18.00;63.60;;;;;;5033750;28;20286;-84
2022/02/15 03:02:19;;;;;;;3.97;2.78;;;18.00;63.80;;;;;;5015710;28;20166;-83
2022/02/15 03:04:45;;;;;;;3.92;3.08;;;18.00;63.80;;;;;;4999854;28;20253;-84
2022/02/15 03:07:11;;;;;;;3.22;2.70;;;18.00;63.80;;;;;;5018188;28;20233;-84
2022/02/15 03:09:37;;;;;;;3.85;2.75;;;17.90;63.50;;;;;;5019597;28;20177;-84
2022/02/15 03:12:04;;;;;;;4.20;2.58;;;18.00;63.70;;;;;;5019831;28;20167;-83
2022/02/15 03:14:30;;;;;;;5.22;2.80;;;17.90;64.00;;;;;;5019234;28;20186;-83
2022/02/15 03:16:56;;;;;;;3.60;2.83;;;18.00;63.50;;;;;;5019479;28;20230;-84
2022/02/15 03:19:22;;;;;;;3.70;2.72;;;17.90;64.70;;;;;;5019579;28;20155;-83
2022/02/15 03:21:48;;;;;;;3.65;2.80;;;17.90;63.80;;;;;;5019334;28;20143;-84
2022/02/15 03:24:13;;;;;;;3.50;2.70;;;17.90;63.80;;;;;;5019439;28;20220;-84
2022/02/15 03:26:39;;;;;;;3.65;2.80;;;18.00;64.00;;;;;;5018958;28;20247;-84
2022/02/15 03:29:05;;;;;;;5.85;3.17;;;17.90;63.90;;;;;;5002902;28;20189;-84
2022/02/15 03:31:31;;;;;;;5.07;2.60;;;18.00;63.80;;;;;;5019520;28;20680;-84
2022/02/15 03:33:57;;;;;;;3.28;2.60;;;17.90;63.90;;;;;;5018957;28;20190;-83
2022/02/15 03:36:23;;;;;;;4.10;2.88;;;17.90;63.60;;;;;;5003095;28;20251;-84
2022/02/15 03:38:49;;;;;;;4.22;2.70;;;17.90;64.00;;;;;;5002643;28;20213;-84
2022/02/15 03:44:01;;;;;;;4.68;2.60;;;17.90;63.90;;;;;;5021772;28;20253;-84
2022/02/15 03:46:27;;;;;;;3.55;2.65;;;17.90;64.00;;;;;;5002764;28;20162;-84
2022/02/15 03:48:53;;;;;;;4.97;2.55;;;17.90;63.90;;;;;;5002207;28;20596;-84
2022/02/15 03:51:19;;;;;;;3.17;2.63;;;17.90;64.10;;;;;;5002725;28;20537;-84
2022/02/15 03:53:44;;;;;;;5.40;3.03;;;17.80;63.90;;;;;;5002475;28;20205;-84
2022/02/15 03:56:10;;;;;;;3.63;2.67;;;17.90;63.60;;;;;;5002108;28;20155;-84
2022/02/15 03:58:37;;;;;;;4.20;2.67;;;18.00;64.00;;;;;;5002421;28;20213;-84
2022/02/15 04:01:03;;;;;;;5.05;2.65;;;17.80;63.80;;;;;;5018630;28;20182;-83
2022/02/15 04:03:29;;;;;;;4.13;2.78;;;17.90;63.50;;;;;;5002119;28;20173;-83
2022/02/15 04:05:55;;;;;;;3.83;2.53;;;17.90;63.90;;;;;;5002341;28;20163;-83
2022/02/15 04:08:22;;;;;;;5.25;2.90;;;17.90;63.80;;;;;;5018379;28;20155;-84
2022/02/15 04:10:48;;;;;;;3.60;2.60;;;17.90;63.60;;;;;;5018685;28;20181;-84
2022/02/15 04:13:14;;;;;;;3.55;2.70;;;17.90;63.90;;;;;;5035883;28;20522;-84
2022/02/15 04:15:40;;;;;;;5.43;2.65;;;17.90;63.90;;;;;;5018433;28;20635;-83
2022/02/15 04:18:06;;;;;;;3.90;2.72;;;18.00;63.80;;;;;;5017668;28;20159;-84
2022/02/15 04:20:33;;;;;;;3.63;2.50;;;17.90;63.60;;;;;;5018102;28;20155;-83
2022/02/15 04:23:00;;;;;;;3.55;2.70;;;17.90;63.50;;;;;;4984802;28;20190;-83
2022/02/15 04:25:26;;;;;;;3.75;2.53;;;17.90;63.80;;;;;;5000942;28;20236;-83
2022/02/15 04:27:53;;;;;;;4.40;2.70;;;17.90;63.60;;;;;;5017993;28;20293;-83
2022/02/15 04:30:20;;;;;;;4.72;2.67;;;17.90;63.80;;;;;;5000936;28;20183;-84
2022/02/15 04:32:47;;;;;;;3.53;2.65;;;17.90;63.20;;;;;;5000903;28;20186;-84
2022/02/15 04:35:14;;;;;;;3.30;2.95;;;17.90;63.80;;;;;;5000748;28;20218;-84
2022/02/15 04:37:41;;;;;;;3.25;2.65;;;17.90;63.70;;;;;;4984954;28;20194;-84
2022/02/15 04:40:08;;;;;;;3.72;2.72;;;17.90;63.50;;;;;;4984741;28;20187;-83
2022/02/15 04:42:34;;;;;;;4.45;2.80;;;17.90;63.90;;;;;;5017732;28;20174;-84
2022/02/15 04:44:59;;;;;;;4.65;2.67;;;17.90;63.90;;;;;;5018020;28;20155;-83
2022/02/15 04:47:25;;;;;;;3.65;2.50;;;17.90;63.50;;;;;;5017842;28;20617;-84
2022/02/15 04:49:50;;;;;;;4.80;2.70;;;17.90;64.20;;;;;;5017690;28;20258;-83
2022/02/15 04:52:16;;;;;;;3.70;2.70;;;17.90;63.90;;;;;;5017751;28;20173;-83
2022/02/15 04:54:42;;;;;;;3.20;2.60;;;17.90;63.80;;;;;;5001140;28;20233;-84
2022/02/15 04:57:09;;;;;;;3.28;2.83;;;17.90;64.00;;;;;;5001453;28;20163;-83
2022/02/15 04:59:36;;;;;;;3.45;2.50;;;17.80;63.50;;;;;;4968062;28;20232;-83
2022/02/15 05:02:03;;;;;;;4.32;2.70;;;17.80;64.00;;;;;;5000235;28;20269;-83
2022/02/15 05:07:17;;;;;;;4.97;2.83;;;17.80;64.00;;;;;;4992447;28;20653;-84
2022/02/15 05:09:44;;;;;;;3.95;2.70;;;17.80;63.90;;;;;;4984175;28;20273;-84
2022/02/15 05:12:10;;;;;;;5.07;2.70;;;17.80;63.80;;;;;;4984048;28;20999;-84
2022/02/15 05:14:37;;;;;;;4.40;2.83;;;17.80;63.70;;;;;;5017272;28;20199;-83
2022/02/15 05:17:03;;;;;;;3.40;2.63;;;17.80;64.00;;;;;;5000832;28;20593;-84
2022/02/15 05:19:29;;;;;;;4.47;2.90;;;17.80;64.10;;;;;;5034807;28;20166;-84
2022/02/15 05:21:55;;;;;;;4.10;2.75;;;17.80;64.40;;;;;;5017093;28;20151;-84
2022/02/15 05:24:21;;;;;;;4.15;2.40;;;17.90;63.60;;;;;;5000640;28;20181;-84
2022/02/15 05:26:46;;;;;;;4.13;2.53;;;17.80;63.60;;;;;;5016678;28;20226;-84
2022/02/15 05:29:12;;;;;;;4.20;2.80;;;17.90;63.10;;;;;;5016382;28;20171;-83
2022/02/15 05:31:38;;;;;;;3.58;2.78;;;17.80;63.00;;;;;;5034084;28;20162;-83
2022/02/15 05:34:03;;;;;;;3.88;2.60;;;17.90;63.20;;;;;;5016772;28;20570;-83
2022/02/15 05:36:30;;;;;;;3.80;2.72;;;17.90;62.90;;;;;;5016858;28;20246;-83
2022/02/15 05:38:57;;;;;;;4.90;2.75;;;18.00;62.80;;;;;;5034641;28;20609;-84
2022/02/15 05:41:23;;;;;;;2.88;2.40;;;18.00;62.50;;;;;;5034356;28;20162;-83
2022/02/15 05:43:48;;;;;;;5.85;2.30;;;18.00;62.40;;;;;;5016864;28;20169;-84
2022/02/15 05:46:14;;;;;;;2.72;2.35;;;18.10;62.30;;;;;;5016673;28;20492;-84
2022/02/15 05:48:40;;;;;;;4.05;2.60;;;18.00;62.10;;;;;;5000172;28;20179;-83
2022/02/15 05:51:05;;;;;;;3.65;2.55;;;18.10;62.40;;;;;;5016491;28;20162;-84
2022/02/15 05:53:31;;;;;;;3.30;2.70;;;18.10;62.30;;;;;;5016321;28;20206;-84
2022/02/15 05:55:59;;;;;;;2.72;2.30;;;18.20;62.10;;;;;;5016787;28;20155;-83
2022/02/15 05:58:26;;;;;;;3.13;2.40;;;18.10;62.10;;;;;;5000695;28;20190;-83
2022/02/15 06:00:51;;;;;;;4.20;2.90;;;18.10;62.00;;;;;;5016695;28;20151;-84
2022/02/15 06:05:59;;;;;;;3.63;2.50;;;18.10;61.60;;;;;;5014730;28;20245;-84
2022/02/15 06:08:26;;;;;;;3.70;2.58;;;18.10;61.60;;;;;;4979643;28;20198;-84
2022/02/15 06:10:54;;;;;;;2.90;2.50;;;18.20;61.80;;;;;;4963480;28;20183;-84
2022/02/15 06:13:21;;;;;;;2.83;2.50;;;18.20;61.50;;;;;;4995822;28;20218;-84
2022/02/15 06:15:48;;;;;;;3.67;2.85;;;18.20;61.50;;;;;;4963433;28;20182;-83
2022/02/15 06:18:14;;;;;;;3.20;2.58;;;18.20;61.20;;;;;;4995761;28;20199;-84
2022/02/15 06:20:40;;;;;;;3.88;2.65;;;18.20;61.00;;;;;;4996414;28;20159;-84
2022/02/15 06:23:05;;;;;;;3.20;2.50;;;18.20;61.10;;;;;;4980338;28;20170;-84
2022/02/15 06:25:31;;;;;;;3.90;2.63;;;18.30;61.50;;;;;;4996436;28;20198;-83
2022/02/15 06:27:57;;;;;;;3.65;2.90;;;18.30;61.50;;;;;;4980057;28;20250;-84
2022/02/15 06:30:22;;;;;;;3.15;2.60;;;18.20;61.20;;;;;;4980420;28;20159;-83
2022/02/15 06:32:49;;;;;;;2.67;2.42;;;18.20;61.30;;;;;;4980118;28;20172;-83
2022/02/15 06:35:15;;;;;;;3.38;2.53;;;18.20;61.20;;;;;;5013735;28;20282;-84
2022/02/15 06:37:43;;;;;;;3.50;2.33;;;18.30;61.30;;;;;;4980565;28;20167;-84
2022/02/15 06:40:09;;;;;;;2.38;2.17;;;18.30;61.40;;;;;;4980139;28;20191;-83
2022/02/15 06:42:35;;;;;;;3.15;2.40;;;18.30;61.70;;;;;;4980141;28;20170;-83
2022/02/15 06:45:01;;;;;;;3.60;2.42;;;18.30;61.40;;;;;;4979911;28;20614;-82
2022/02/15 06:47:27;;;;;;;3.67;2.35;;;18.20;60.90;;;;;;4964145;28;20258;-83
2022/02/15 06:49:53;;;;;;;3.67;2.47;;;18.30;61.30;;;;;;4979913;28;20283;-83
2022/02/15 06:52:19;;;;;;;3.20;2.20;;;18.30;61.30;;;;;;4964091;28;20167;-83
2022/02/15 06:54:46;;;;;;;3.17;2.63;;;18.30;60.90;;;;;;4979649;28;20187;-83
2022/02/15 06:57:12;;;;;;;3.05;2.35;;;18.30;60.70;;;;;;4963123;28;20179;-84
2022/02/15 06:59:39;;;;;;;5.55;2.50;;;18.30;60.90;;;;;;4996092;28;20167;-83
2022/02/15 07:02:06;;;;;;;3.40;2.40;;;18.30;61.00;;;;;;4978746;28;20230;-83
2022/02/15 07:04:31;;;;;;;3.88;2.50;;;18.30;61.00;;;;;;4978849;28;20190;-84
2022/02/15 07:06:58;;;;;;;3.42;2.67;;;18.30;60.70;;;;;;5013251;28;20543;-84
2022/02/15 07:09:24;;;;;;;4.00;2.40;;;18.30;60.90;;;;;;4962793;28;20202;-83
2022/02/15 07:11:50;;;;;;;3.75;2.60;;;18.40;59.30;;;;;;4979734;28;20611;-83
2022/02/15 07:14:16;;;;;;;3.10;2.50;;;18.40;59.50;;;;;;4979574;28;20218;-83
2022/02/15 07:16:45;;;;;;;2.72;2.35;;;18.30;59.80;;;;;;4963398;28;20163;-84
2022/02/15 07:19:11;;;;;;;3.60;2.63;;;18.40;60.00;;;;;;4980894;28;20147;-84
2022/02/15 07:21:37;;;;;;;3.30;2.33;;;18.40;60.20;;;;;;5013315;28;20159;-84
2022/02/15 07:24:03;;;;;;;3.35;2.38;;;18.40;60.10;;;;;;4979565;28;20160;-83
2022/02/15 07:26:29;;;;;;;2.83;2.55;;;18.40;60.10;;;;;;4979795;28;20318;-83
2022/02/15 07:28:55;;;;;;;2.88;2.50;;;18.50;59.70;;;;;;4976166;28;20326;-84
2022/02/15 07:31:21;;;;;;;3.40;2.50;;;18.50;60.10;;;;;;4976573;28;20176;-83
2022/02/15 07:33:46;;;;;;;3.65;2.40;;;18.50;59.90;;;;;;4976397;28;20206;-83
2022/02/15 07:36:12;;;;;;;3.50;2.55;;;18.50;59.30;;;;;;4960490;28;20187;-82
2022/02/15 07:38:38;;;;;;;3.70;2.42;;;18.50;59.40;;;;;;4976720;28;20160;-81
2022/02/15 07:41:04;;;;;;;3.58;2.50;;;18.50;59.60;;;;;;4979018;28;20606;-83
2022/02/15 07:43:30;;;;;;;2.50;2.30;;;18.50;59.50;;;;;;4995525;28;20662;-82
2022/02/15 07:45:55;;;;;;;4.32;2.53;;;18.50;59.40;;;;;;5013420;28;20615;-82
2022/02/15 07:48:21;;;;;;;3.08;2.38;;;18.50;59.30;;;;;;4960451;28;20175;-82
2022/02/15 07:50:49;;;;;;;3.22;2.88;;;18.50;59.50;;;;;;4975881;28;20172;-81
2022/02/15 07:53:14;;;;;;;2.97;2.30;;;18.50;59.70;;;;;;4959989;28;20183;-82
2022/02/15 07:55:41;;;;;;;3.97;2.22;;;18.50;59.60;;;;;;4979650;28;20163;-82
2022/02/15 07:58:06;;;;;;;3.42;2.40;;;18.50;59.60;;;;;;4963680;28;20156;-82
2022/02/15 08:00:33;;;;;;;2.83;2.42;;;18.50;59.30;;;;;;4979439;28;20160;-82
2022/02/15 08:02:59;;;;;;;2.95;2.47;;;18.50;59.50;;;;;;4979514;28;20161;-82
2022/02/15 08:05:26;;;;;;;2.97;2.38;;;18.50;58.90;;;;;;4963438;28;20491;-82
2022/02/15 08:07:54;;;;;;;2.80;2.45;;;18.50;59.00;;;;;;4962458;28;20176;-82
2022/02/15 08:10:22;;;;;;;4.28;2.60;;;18.50;59.10;;;;;;4963405;28;20163;-82
2022/02/15 08:15:32;;;;;;;2.80;2.28;;;18.50;59.10;;;;;;4981169;28;20172;-82
2022/02/15 08:17:59;;;;;;;2.50;2.25;;;18.50;59.20;;;;;;4981217;28;20255;-82
2022/02/15 08:20:24;;;;;;;2.47;2.10;;;18.60;59.70;;;;;;4973742;28;20170;-82
2022/02/15 08:22:50;;;;;;;2.53;2.33;;;18.50;59.70;;;;;;4995992;28;20538;-83
2022/02/15 08:25:17;;;;;;;3.08;2.30;;;18.50;59.10;;;;;;4999198;28;20171;-82
2022/02/15 08:27:44;;;;;;;3.05;2.42;;;18.60;58.70;;;;;;4998710;28;20326;-82
2022/02/15 08:30:11;;;;;;;2.60;2.40;;;18.60;58.90;;;;;;4999278;28;20158;-82
2022/02/15 08:32:36;;;;;;;2.53;2.30;;;18.60;60.00;;;;;;4982143;28;20191;-82
2022/02/15 08:35:03;;;;;;;3.38;2.40;;;18.50;59.00;;;;;;4998290;28;20211;-82
2022/02/15 08:37:28;;;;;;;3.45;2.10;;;18.60;58.80;;;;;;4982068;28;20167;-82
2022/02/15 08:39:56;;;;;;;2.72;2.38;;;18.50;59.90;;;;;;4998248;28;20164;-84
2022/02/15 08:42:24;;;;;;;2.35;2.13;;;18.50;59.50;;;;;;4985419;28;20650;-83
2022/02/15 08:44:53;;;;;;;2.90;2.40;;;18.50;59.50;;;;;;4949229;28;20187;-83
2022/02/15 08:47:19;;;;;;;2.50;2.30;;;18.50;59.40;;;;;;4966589;28;20255;-83
2022/02/15 08:49:46;;;;;;;2.53;2.10;;;18.50;59.30;;;;;;4965649;28;20195;-83
2022/02/15 08:52:12;;;;;;;2.45;2.20;;;18.50;59.80;;;;;;4982787;28;20175;-82
2022/02/15 08:54:38;;;;;;;3.38;2.40;;;18.50;59.70;;;;;;4998009;28;20661;-82
2022/02/15 08:57:05;;;;;;;3.15;2.50;;;18.50;59.30;;;;;;4998531;28;20186;-83
2022/02/15 08:59:31;;;;;;;4.88;2.60;;;18.50;59.70;;;;;;4978471;28;20635;-82
2022/02/15 09:01:56;;;;;;;2.78;2.28;;;18.50;59.60;;;;;;4966542;28;20215;-82
2022/02/15 09:04:22;;;;;;;3.58;2.30;;;18.50;59.50;;;;;;5015370;28;20279;-82
2022/02/15 09:06:51;;;;;;;2.58;2.38;;;18.50;59.90;;;;;;4983069;28;20195;-82
2022/02/15 09:09:18;;;;;;;2.65;2.10;;;18.50;59.10;;;;;;4966729;28;20191;-81
2022/02/15 09:11:45;;;;;;;3.40;2.47;;;18.60;59.70;;;;;;4965346;28;20194;-82
2022/02/15 09:14:12;;;;;;;2.80;2.45;;;18.60;59.70;;;;;;4981058;28;20223;-82
2022/02/15 09:16:38;;;;;;;3.13;2.20;;;18.50;59.70;;;;;;4966128;28;20195;-82
2022/02/15 09:19:04;;;;;;;7.93;2.38;;;18.50;60.30;;;;;;4982262;28;20167;-82
2022/02/15 09:21:30;;;;;;;3.90;2.50;;;18.60;60.10;;;;;;4966016;28;20164;-82
2022/02/15 09:23:56;;;;;;;2.72;2.25;;;18.60;60.70;;;;;;5016846;28;20178;-81
2022/02/15 09:26:21;;;;;;;2.63;2.22;;;18.50;59.80;;;;;;4998366;28;20215;-81
2022/02/15 09:28:48;;;;;;;3.75;2.22;;;18.60;59.90;;;;;;4998706;28;20191;-82
2022/02/15 09:31:17;;;;;;;3.53;2.50;;;18.60;59.10;;;;;;4982120;28;20261;-81
2022/02/15 09:33:42;;;;;;;3.20;2.60;;;18.60;59.20;;;;;;4978200;28;20195;-82
2022/02/15 09:36:08;;;;;;;3.13;2.28;;;18.60;59.90;;;;;;4965110;28;20226;-82
2022/02/15 09:38:33;;;;;;;2.60;2.30;;;18.70;59.50;;;;;;4996868;28;20623;-80
2022/02/15 09:41:02;;;;;;;2.78;2.40;;;18.60;59.60;;;;;;4981075;28;20260;-82
2022/02/15 09:43:28;;;;;;;3.50;2.50;;;18.60;59.70;;;;;;4981433;28;20179;-82
2022/02/15 09:45:55;;;;;;;3.10;2.50;;;18.60;59.40;;;;;;4980791;28;20182;-82
2022/02/15 09:48:24;;;;;;;3.53;2.40;;;18.60;59.80;;;;;;4997092;28;20494;-82
2022/02/15 09:50:51;;;;;;;3.47;2.40;;;18.60;59.70;;;;;;4997361;28;20151;-82
2022/02/15 09:53:16;;;;;;;3.38;2.28;;;18.60;59.60;;;;;;4980676;28;20183;-82
2022/02/15 09:55:42;;;;;;;3.53;2.40;;;18.60;59.80;;;;;;4996722;28;20522;-82
2022/02/15 09:58:08;;;;;;;4.93;2.30;;;18.70;59.70;;;;;;4980572;28;20619;-82
2022/02/15 10:00:34;;;;;;;2.53;2.30;;;18.70;59.50;;;;;;4996790;28;20615;-83
2022/02/15 10:03:01;;;;;;;2.83;2.38;;;18.70;59.50;;;;;;5014218;28;20166;-82
2022/02/15 10:05:31;;;;;;;3.40;2.47;;;18.70;59.70;;;;;;4981026;28;20171;-82
2022/02/15 10:07:57;;;;;;;4.00;2.50;;;18.70;59.50;;;;;;4999221;28;20168;-82
2022/02/15 10:10:30;;;;;;;2.58;2.35;;;18.70;59.70;;;;;;4997242;28;20203;-82
2022/02/15 10:12:58;;;;;;;2.55;2.25;;;18.70;59.40;;;;;;4996543;28;20524;-82
2022/02/15 10:15:28;;;;;;;2.60;2.30;;;18.70;59.80;;;;;;4980210;28;20290;-82
2022/02/15 10:18:08;;;;;;;3.38;2.30;;;18.70;59.70;;;;;;4996739;28;20202;-82
2022/02/15 10:20:35;;;;;;;3.78;2.78;;;18.70;59.50;;;;;;4998147;28;20159;-83
2022/02/15 10:23:24;;;;;;;3.58;2.28;;;18.70;59.10;;;;;;4980996;28;20202;-82
2022/02/15 10:25:50;;;;;;;2.85;2.55;;;18.70;59.60;;;;;;4997684;28;20156;-82
2022/02/15 10:28:22;;;;;;;2.67;2.15;;;18.80;59.40;;;;;;4964456;28;20559;-82
2022/02/15 10:30:50;;;;;;;2.67;2.47;;;18.80;59.40;;;;;;4997220;28;20221;-83
2022/02/15 10:33:17;;;;;;;3.90;2.55;;;18.70;59.60;;;;;;4996550;28;20166;-82
2022/02/15 10:35:55;;;;;;;2.67;2.22;;;18.80;59.50;;;;;;4999529;28;20175;-82
2022/02/15 10:38:27;;;;;;;3.22;2.47;;;18.80;59.30;;;;;;4997508;28;20151;-82
2022/02/15 10:40:57;;;;;;;3.33;2.33;;;18.80;59.00;;;;;;4997223;28;20155;-83
2022/02/15 10:43:23;;;;;;;2.75;2.40;;;18.70;59.10;;;;;;4983260;28;20626;-81
2022/02/15 10:45:49;;;;;;;3.70;2.80;;;18.80;58.90;;;;;;4996357;28;20174;-83
2022/02/15 10:48:14;;;;;;;3.83;2.92;;;18.80;58.40;;;;;;4996922;28;20156;-83
2022/02/15 10:50:40;;;;;;;3.05;2.45;;;18.80;58.40;;;;;;4980305;28;20569;-83
2022/02/15 10:53:06;;;;;;;4.00;2.38;;;18.80;59.10;;;;;;4996171;28;20242;-83
2022/02/15 10:55:32;;;;;;;4.80;2.67;;;18.80;58.90;;;;;;4997000;28;20175;-82
2022/02/15 10:57:58;;;;;;;3.90;2.80;;;18.80;57.40;;;;;;4980636;28;20533;-82
2022/02/15 11:00:24;;;;;;;2.80;2.20;;;18.90;58.10;;;;;;4996709;28;20151;-82
2022/02/15 11:02:50;;;;;;;2.88;2.55;;;18.90;58.90;;;;;;4996634;28;20147;-82
2022/02/15 11:05:16;;;;;;;3.17;2.50;;;18.90;58.50;;;;;;4996413;28;20182;-81
2022/02/15 11:07:42;;;;;;;3.20;2.30;;;18.90;58.50;;;;;;4980097;28;20193;-82
2022/02/15 11:10:19;;;;;;;4.57;2.80;;;18.90;58.70;;;;;;4997087;28;20692;-81
2022/02/15 11:12:50;;;;;;;4.22;2.50;;;18.80;58.70;;;;;;4979309;28;20179;-81
2022/02/15 11:15:22;;;;;;;4.18;2.58;;;18.90;58.70;;;;;;4995836;28;20229;-80
2022/02/15 11:17:53;;;;;;;4.40;2.90;;;18.90;58.40;;;;;;4979985;28;20160;-81
2022/02/15 11:20:22;;;;;;;3.63;2.80;;;19.00;57.70;;;;;;4996449;28;20660;-81
2022/02/15 11:22:53;;;;;;;5.13;2.85;;;18.90;58.10;;;;;;4982646;28;20250;-81
2022/02/15 11:25:30;;;;;;;3.63;2.78;;;18.90;58.40;;;;;;4965974;28;20187;-81
2022/02/15 11:28:06;;;;;;;4.25;2.90;;;19.00;58.30;;;;;;4964085;28;20732;-81
2022/02/15 11:30:46;;;;;;;3.85;2.60;;;19.00;57.60;;;;;;4953975;28;20183;-81
2022/02/15 11:33:20;;;;;;;3.38;2.88;;;19.00;58.00;;;;;;4985563;28;20168;-81
2022/02/15 11:35:57;;;;;;;4.75;3.15;;;19.00;58.20;;;;;;4987171;28;20233;-81
2022/02/15 11:38:24;;;;;;;3.72;2.58;;;19.00;57.40;;;;;;5005252;28;20156;-80
2022/02/15 11:40:59;;;;;;;3.25;2.60;;;19.00;58.30;;;;;;5001406;28;20166;-81
2022/02/15 11:43:25;;;;;;;5.00;3.10;;;19.10;57.20;;;;;;5001249;28;20186;-81
2022/02/15 11:45:51;;;;;;;3.28;2.85;;;19.10;57.50;;;;;;4999900;28;20197;-81
2022/02/15 11:48:17;;;;;;;5.72;3.20;;;19.10;57.80;;;;;;4984781;28;20163;-80
2022/02/15 11:50:48;;;;;;;3.42;2.70;;;19.10;58.00;;;;;;4984712;28;20210;-80
2022/02/15 11:53:16;;;;;;;3.63;2.70;;;19.10;57.70;;;;;;5000321;28;20258;-81
2022/02/15 11:55:42;;;;;;;4.80;2.97;;;19.10;57.80;;;;;;5017352;28;20159;-81
2022/02/15 11:58:08;;;;;;;3.53;2.60;;;19.10;58.10;;;;;;4983305;28;20587;-81
2022/02/15 12:00:35;;;;;;;4.95;3.08;;;19.10;57.30;;;;;;4999799;28;20627;-81
2022/02/15 12:03:01;;;;;;;5.80;2.90;;;19.10;57.40;;;;;;4999941;28;20629;-81
2022/02/15 12:05:29;;;;;;;6.18;2.90;;;19.10;57.50;;;;;;4999137;28;20195;-81
2022/02/15 12:07:56;;;;;;;9.80;3.20;;;19.10;57.50;;;;;;4998773;28;20163;-82
2022/02/15 12:10:22;;;;;;;4.28;2.92;;;19.10;57.80;;;;;;4999161;28;20164;-81
2022/02/15 12:12:48;;;;;;;4.00;2.83;;;19.20;57.50;;;;;;4999310;28;20178;-81
2022/02/15 12:15:14;;;;;;;5.88;3.35;;;19.20;57.40;;;;;;4982682;28;20615;-82
2022/02/15 12:17:45;;;;;;;4.70;2.90;;;19.10;57.80;;;;;;4982690;28;20170;-81
2022/02/15 12:20:13;;;;;;;6.13;2.72;;;19.20;57.50;;;;;;4983323;28;20183;-81
2022/02/15 12:22:42;;;;;;;5.03;2.67;;;19.10;57.50;;;;;;4951416;28;20195;-81
2022/02/15 12:25:09;;;;;;;4.40;2.70;;;19.20;57.40;;;;;;4984546;28;20164;-81
2022/02/15 12:27:39;;;;;;;4.25;2.90;;;19.20;57.50;;;;;;4998625;28;20250;-82
2022/02/15 12:30:05;;;;;;;3.45;2.55;;;19.20;57.50;;;;;;4999586;28;20156;-81
2022/02/15 12:32:32;;;;;;;6.13;3.05;;;19.20;57.80;;;;;;4999203;28;20179;-82
2022/02/15 12:34:58;;;;;;;5.93;2.72;;;19.10;57.60;;;;;;4998903;28;20202;-82
2022/02/15 12:37:26;;;;;;;3.65;2.90;;;19.20;57.80;;;;;;4999149;28;20194;-82
2022/02/15 12:39:53;;;;;;;2.90;2.40;;;19.10;57.30;;;;;;4998447;28;20159;-82
2022/02/15 12:42:18;;;;;;;4.30;2.45;;;19.20;58.10;;;;;;5016385;28;20164;-82
2022/02/15 12:44:57;;;;;;;4.10;2.80;;;19.10;58.10;;;;;;4999035;28;20232;-81
2022/02/15 12:47:26;;;;;;;3.67;2.90;;;19.10;57.70;;;;;;4998828;28;20243;-81
2022/02/15 12:49:57;;;;;;;4.45;2.80;;;19.10;57.90;;;;;;4966532;28;20182;-82
2022/02/15 12:52:26;;;;;;;3.85;2.95;;;19.10;57.50;;;;;;4950539;28;20187;-81
2022/02/15 12:54:55;;;;;;;4.32;3.00;;;19.10;57.80;;;;;;4967155;28;20214;-81
2022/02/15 12:57:21;;;;;;;4.40;2.92;;;19.10;58.00;;;;;;4967794;28;20175;-82